createdAt,value
2019-04-23T00:00:23.375Z,9.70
2019-04-23T00:01:28.302Z,9.60
2019-04-23T00:02:23.101Z,9.60
2019-04-23T00:03:26.987Z,9.70
2019-04-23T00:04:16.454Z,9.60
2019-04-23T00:05:35.105Z,9.60
2019-04-23T00:06:23.174Z,9.70
2019-04-23T00:07:35.208Z,9.60
2019-04-23T00:08:25.555Z,9.60
2019-04-23T00:09:25.873Z,9.60
2019-04-23T00:10:28.280Z,9.60
2019-04-23T00:11:25.270Z,9.60
2019-04-23T00:12:37.250Z,9.60
2019-04-23T00:13:29.104Z,9.60
2019-04-23T00:14:26.996Z,9.60
2019-04-23T00:15:16.630Z,9.60
2019-04-23T00:18:29.911Z,9.60
2019-04-23T00:20:25.154Z,9.60
2019-04-23T00:21:26.383Z,9.60
2019-04-23T00:22:28.518Z,9.60
2019-04-23T00:23:24.885Z,9.60
2019-04-23T00:24:27.874Z,9.60
2019-04-23T00:25:48.915Z,9.60
2019-04-23T00:26:30.324Z,9.60
2019-04-23T00:27:28.647Z,9.60
2019-04-23T00:28:26.257Z,9.50
2019-04-23T00:29:27.569Z,9.60
2019-04-23T00:30:26.241Z,9.50
2019-04-23T00:32:28.433Z,9.50
2019-04-23T00:33:24.660Z,9.50
2019-04-23T00:34:24.444Z,9.50
2019-04-23T00:35:25.328Z,9.50
2019-04-23T00:36:25.272Z,9.50
2019-04-23T00:37:30.894Z,9.50
2019-04-23T00:39:22.846Z,9.50
2019-04-23T00:40:25.426Z,9.50
2019-04-23T00:41:24.379Z,9.40
2019-04-23T00:42:29.384Z,9.40
2019-04-23T00:43:25.806Z,9.40
2019-04-23T00:44:22.580Z,9.40
2019-04-23T00:45:32.363Z,9.40
2019-04-23T00:46:27.741Z,9.40
2019-04-23T00:47:25.182Z,9.40
2019-04-23T00:48:27.678Z,9.40
2019-04-23T00:49:23.909Z,9.40
2019-04-23T00:50:28.117Z,9.40
2019-04-23T00:51:21.903Z,9.40
2019-04-23T00:52:26.027Z,9.40
2019-04-23T00:54:25.339Z,9.40
2019-04-23T00:55:20.948Z,9.40
2019-04-23T00:56:38.057Z,9.40
2019-04-23T00:57:28.880Z,9.40
2019-04-23T00:58:27.697Z,9.40
2019-04-23T00:59:26.592Z,9.30
2019-04-23T01:00:33.446Z,9.30
2019-04-23T01:02:22.733Z,9.30
2019-04-23T01:03:21.265Z,9.30
2019-04-23T01:04:25.283Z,9.30
2019-04-23T01:05:23.492Z,9.30
2019-04-23T01:06:23.388Z,9.30
2019-04-23T01:07:24.093Z,9.30
2019-04-23T01:08:24.764Z,9.30
2019-04-23T01:09:28.920Z,9.30
2019-04-23T01:10:26.660Z,9.30
2019-04-23T01:11:19.797Z,9.30
2019-04-23T01:12:31.029Z,9.30
2019-04-23T01:13:30.892Z,9.30
2019-04-23T01:14:19.932Z,9.30
2019-04-23T01:15:32.210Z,9.30
2019-04-23T01:16:20.766Z,9.30
2019-04-23T01:17:31.666Z,9.30
2019-04-23T01:19:30.926Z,9.30
2019-04-23T01:20:28.227Z,9.30
2019-04-23T01:21:05.599Z,9.30
2019-04-23T01:22:06.288Z,9.30
2019-04-23T01:23:05.415Z,9.30
2019-04-23T01:24:09.995Z,9.30
2019-04-23T01:25:09.506Z,9.30
2019-04-23T01:26:23.723Z,9.30
2019-04-23T01:27:32.090Z,9.30
2019-04-23T01:28:21.576Z,9.30
2019-04-23T01:29:19.749Z,9.30
2019-04-23T01:30:27.318Z,9.40
2019-04-23T01:31:47.374Z,9.30
2019-04-23T01:33:32.605Z,9.40
2019-04-23T01:34:31.028Z,9.40
2019-04-23T01:35:18.748Z,9.40
2019-04-23T01:37:29.894Z,9.40
2019-04-23T01:39:22.592Z,9.40
2019-04-23T01:40:31.741Z,9.40
2019-04-23T01:42:35.379Z,9.40
2019-04-23T01:43:29.933Z,9.40
2019-04-23T01:44:36.531Z,9.40
2019-04-23T01:45:26.793Z,9.40
2019-04-23T01:46:20.928Z,9.40
2019-04-23T01:47:30.214Z,9.50
2019-04-23T01:49:35.785Z,9.50
2019-04-23T01:51:25.734Z,9.50
2019-04-23T01:52:24.719Z,9.50
2019-04-23T01:53:33.134Z,9.50
2019-04-23T01:54:25.423Z,9.50
2019-04-23T01:56:28.269Z,9.60
2019-04-23T01:57:30.464Z,9.60
2019-04-23T01:58:37.964Z,9.60
2019-04-23T02:01:25.120Z,9.60
2019-04-23T02:02:34.236Z,9.60
2019-04-23T02:03:19.240Z,9.60
2019-04-23T02:04:28.017Z,9.60
2019-04-23T02:07:35.388Z,9.60
2019-04-23T02:08:19.147Z,9.60
2019-04-23T02:09:33.992Z,9.60
2019-04-23T02:10:39.072Z,9.60
2019-04-23T02:11:25.140Z,9.60
2019-04-23T02:12:32.803Z,9.60
2019-04-23T02:14:27.742Z,9.60
2019-04-23T02:15:29.565Z,9.60
2019-04-23T02:16:29.990Z,9.60
2019-04-23T02:17:28.291Z,9.60
2019-04-23T02:18:20.355Z,9.60
2019-04-23T02:19:28.858Z,9.50
2019-04-23T02:21:33.285Z,9.50
2019-04-23T02:22:36.682Z,9.50
2019-04-23T02:23:30.860Z,9.50
2019-04-23T02:24:33.547Z,9.60
2019-04-23T02:25:31.509Z,9.60
2019-04-23T02:26:19.839Z,9.50
2019-04-23T02:28:32.513Z,9.50
2019-04-23T02:29:43.303Z,9.50
2019-04-23T02:30:57.440Z,9.50
2019-04-23T02:31:48.716Z,9.50
2019-04-23T02:32:37.126Z,9.50
2019-04-23T02:35:49.507Z,9.50
2019-04-23T02:36:38.875Z,9.50
2019-04-23T02:37:53.436Z,9.50
2019-04-23T02:40:46.348Z,9.50
2019-04-23T02:41:26.376Z,9.50
2019-04-23T02:42:49.317Z,9.50
2019-04-23T02:43:15.938Z,9.50
2019-04-23T02:44:31.613Z,9.50
2019-04-23T02:45:26.462Z,9.40
2019-04-23T02:46:12.700Z,9.40
2019-04-23T02:47:41.647Z,9.50
2019-04-23T02:49:43.222Z,9.50
2019-04-23T02:52:36.795Z,9.50
2019-04-23T02:53:44.048Z,9.40
2019-04-23T02:57:35.076Z,9.40
2019-04-23T02:58:41.637Z,9.40
2019-04-23T02:59:27.892Z,9.40
2019-04-23T03:00:37.802Z,9.40
2019-04-23T03:02:34.634Z,9.40
2019-04-23T03:06:37.849Z,9.40
2019-04-23T03:08:37.480Z,9.30
2019-04-23T03:10:40.114Z,9.30
2019-04-23T03:11:40.031Z,9.30
2019-04-23T03:13:45.817Z,9.30
2019-04-23T03:16:26.741Z,9.20
2019-04-23T03:17:35.535Z,9.20
2019-04-23T03:18:45.734Z,9.20
2019-04-23T03:19:23.469Z,9.20
2019-04-23T03:20:47.720Z,9.20
2019-04-23T03:21:42.389Z,9.20
2019-04-23T03:23:31.559Z,9.20
2019-04-23T03:24:30.995Z,9.20
2019-04-23T03:25:30.710Z,9.20
2019-04-23T03:26:36.596Z,9.20
2019-04-23T03:27:33.484Z,9.20
2019-04-23T03:28:42.588Z,9.20
2019-04-23T03:29:39.567Z,9.20
2019-04-23T03:30:57.803Z,9.20
2019-04-23T03:39:49.863Z,9.10
2019-04-23T03:40:16.783Z,9.10
2019-04-23T03:41:39.009Z,9.10
2019-04-23T03:43:36.818Z,9.10
2019-04-23T03:44:28.737Z,9.10
2019-04-23T03:45:46.175Z,9.10
2019-04-23T03:46:29.092Z,9.10
2019-04-23T03:47:23.854Z,9.10
2019-04-23T03:48:40.776Z,9.10
2019-04-23T03:49:40.694Z,9.10
2019-04-23T03:50:35.158Z,9.10
2019-04-23T03:51:25.867Z,9.10
2019-04-23T03:52:27.188Z,9.10
2019-04-23T03:54:37.338Z,9.10
2019-04-23T03:55:27.278Z,9.10
2019-04-23T03:59:44.409Z,9.00
2019-04-23T04:00:32.464Z,9.00
2019-04-23T04:01:34.149Z,9.00
2019-04-23T04:02:48.134Z,9.00
2019-04-23T04:04:03.582Z,9.00
2019-04-23T04:06:42.590Z,9.00
2019-04-23T04:07:27.619Z,9.00
2019-04-23T04:08:33.511Z,9.00
2019-04-23T04:09:38.358Z,9.00
2019-04-23T04:10:43.989Z,9.00
2019-04-23T04:11:19.099Z,9.00
2019-04-23T04:12:27.151Z,9.00
2019-04-23T04:15:48.135Z,9.00
2019-04-23T04:16:26.334Z,9.00
2019-04-23T04:17:26.105Z,9.00
2019-04-23T04:18:43.901Z,9.00
2019-04-23T04:20:39.069Z,9.00
2019-04-23T04:23:42.480Z,8.90
2019-04-23T04:24:39.376Z,8.90
2019-04-23T04:26:43.626Z,8.90
2019-04-23T04:28:27.553Z,8.90
2019-04-23T04:29:46.609Z,8.90
2019-04-23T04:31:41.103Z,8.90
2019-04-23T04:32:35.846Z,8.90
2019-04-23T04:33:48.664Z,8.90
2019-04-23T04:35:26.903Z,8.90
2019-04-23T04:36:44.567Z,8.90
2019-04-23T04:37:40.098Z,8.90
2019-04-23T04:39:41.985Z,8.90
2019-04-23T04:40:36.261Z,8.90
2019-04-23T04:41:24.989Z,8.90
2019-04-23T04:42:32.586Z,8.90
2019-04-23T04:43:39.308Z,8.90
2019-04-23T04:44:40.888Z,9.00
2019-04-23T04:46:38.458Z,9.00
2019-04-23T04:47:41.101Z,9.10
2019-04-23T04:48:39.922Z,9.10
2019-04-23T04:51:48.665Z,9.40
2019-04-23T04:54:18.726Z,9.70
2019-04-23T04:55:35.505Z,9.80
2019-04-23T04:56:33.976Z,9.90
2019-04-23T04:58:39.131Z,10.00
2019-04-23T04:59:20.762Z,10.10
2019-04-23T05:00:52.343Z,10.20
2019-04-23T05:01:22.163Z,10.20
2019-04-23T05:03:29.023Z,10.40
2019-04-23T05:04:42.087Z,10.50
2019-04-23T05:05:58.909Z,10.60
2019-04-23T05:07:27.320Z,10.70
2019-04-23T05:08:36.437Z,10.80
2019-04-23T05:09:28.949Z,10.80
2019-04-23T05:11:45.155Z,11.00
2019-04-23T05:12:35.637Z,11.10
2019-04-23T05:14:43.354Z,11.20
2019-04-23T05:16:32.967Z,11.40
2019-04-23T05:18:35.923Z,11.50
2019-04-23T05:19:28.503Z,11.50
2019-04-23T05:21:38.565Z,11.60
2019-04-23T05:22:38.268Z,11.60
2019-04-23T05:23:33.245Z,11.70
2019-04-23T05:24:20.874Z,11.70
2019-04-23T05:26:26.891Z,11.80
2019-04-23T05:27:27.076Z,11.90
2019-04-23T05:28:29.734Z,11.90
2019-04-23T05:29:30.098Z,12.00
2019-04-23T05:30:37.899Z,12.00
2019-04-23T05:31:27.506Z,12.00
2019-04-23T05:32:32.603Z,12.10
2019-04-23T05:33:28.545Z,12.10
2019-04-23T05:34:20.457Z,12.10
2019-04-23T05:35:31.833Z,12.20
2019-04-23T05:37:41.712Z,12.30
2019-04-23T05:38:42.659Z,12.40
2019-04-23T05:39:33.636Z,12.50
2019-04-23T05:42:31.589Z,12.70
2019-04-23T05:43:32.130Z,12.70
2019-04-23T05:45:21.408Z,12.90
2019-04-23T05:46:32.682Z,13.00
2019-04-23T05:47:26.956Z,13.10
2019-04-23T05:48:31.869Z,13.20
2019-04-23T05:49:17.159Z,13.20
2019-04-23T05:50:40.600Z,13.30
2019-04-23T05:52:23.867Z,13.40
2019-04-23T05:53:32.841Z,13.40
2019-04-23T05:54:34.669Z,13.40
2019-04-23T05:55:26.261Z,13.50
2019-04-23T05:57:19.677Z,13.60
2019-04-23T05:58:21.827Z,13.70
2019-04-23T05:59:29.424Z,13.70
2019-04-23T06:00:32.004Z,13.80
2019-04-23T06:01:53.628Z,13.90
2019-04-23T06:02:33.508Z,13.90
2019-04-23T06:03:28.423Z,13.90
2019-04-23T06:04:30.458Z,13.90
2019-04-23T06:05:32.577Z,14.00
2019-04-23T06:06:37.076Z,14.00
2019-04-23T06:07:35.148Z,14.10
2019-04-23T06:08:31.865Z,14.10
2019-04-23T06:10:32.248Z,14.20
2019-04-23T06:11:27.937Z,14.30
2019-04-23T06:12:31.182Z,14.30
2019-04-23T06:13:35.117Z,14.30
2019-04-23T06:15:31.329Z,14.30
2019-04-23T06:16:35.495Z,14.40
2019-04-23T06:17:24.835Z,14.30
2019-04-23T06:18:24.112Z,14.30
2019-04-23T06:20:34.760Z,14.30
2019-04-23T06:21:33.720Z,14.30
2019-04-23T06:22:34.408Z,14.40
2019-04-23T06:23:36.343Z,14.40
2019-04-23T06:24:25.904Z,14.40
2019-04-23T06:25:49.231Z,14.40
2019-04-23T06:26:39.184Z,14.40
2019-04-23T06:27:17.961Z,14.50
2019-04-23T06:28:20.799Z,14.50
2019-04-23T06:29:31.733Z,14.60
2019-04-23T06:30:40.208Z,14.60
2019-04-23T06:31:22.448Z,14.70
2019-04-23T06:33:32.036Z,14.70
2019-04-23T06:34:33.493Z,14.70
2019-04-23T06:35:28.405Z,14.80
2019-04-23T06:36:32.002Z,14.80
2019-04-23T06:37:25.640Z,14.80
2019-04-23T06:41:21.022Z,14.90
2019-04-23T06:42:17.338Z,15.00
2019-04-23T06:43:31.872Z,15.00
2019-04-23T06:44:30.618Z,15.10
2019-04-23T06:45:27.465Z,15.10
2019-04-23T06:46:36.978Z,15.10
2019-04-23T06:47:17.989Z,15.20
2019-04-23T06:50:34.351Z,15.30
2019-04-23T06:51:34.462Z,15.40
2019-04-23T06:53:28.457Z,15.50
2019-04-23T06:54:35.664Z,15.50
2019-04-23T06:55:19.929Z,15.50
2019-04-23T06:56:32.228Z,15.60
2019-04-23T06:58:31.980Z,15.60
2019-04-23T07:00:33.775Z,15.70
2019-04-23T07:01:26.856Z,15.70
2019-04-23T07:02:31.861Z,15.70
2019-04-23T07:03:21.703Z,15.70
2019-04-23T07:04:34.172Z,15.80
2019-04-23T07:05:29.523Z,15.80
2019-04-23T07:06:34.559Z,15.80
2019-04-23T07:07:42.302Z,15.80
2019-04-23T07:08:42.818Z,15.80
2019-04-23T07:09:17.070Z,15.80
2019-04-23T07:10:31.458Z,15.80
2019-04-23T07:11:33.617Z,15.80
2019-04-23T07:12:29.538Z,15.80
2019-04-23T07:13:39.844Z,15.90
2019-04-23T07:14:35.473Z,15.90
2019-04-23T07:15:37.664Z,15.90
2019-04-23T07:16:27.486Z,15.90
2019-04-23T07:17:24.203Z,15.90
2019-04-23T07:18:22.344Z,15.90
2019-04-23T07:19:30.080Z,15.90
2019-04-23T07:20:19.731Z,15.90
2019-04-23T07:21:27.634Z,15.90
2019-04-23T07:22:24.934Z,15.90
2019-04-23T07:23:37.383Z,15.90
2019-04-23T07:24:21.254Z,15.90
2019-04-23T07:25:31.113Z,15.90
2019-04-23T07:26:33.133Z,15.90
2019-04-23T07:27:24.387Z,15.90
2019-04-23T07:29:30.647Z,16.00
2019-04-23T07:30:29.129Z,16.00
2019-04-23T07:32:30.481Z,16.10
2019-04-23T07:33:34.522Z,16.10
2019-04-23T07:34:28.001Z,16.10
2019-04-23T07:35:21.014Z,16.10
2019-04-23T07:36:22.616Z,16.10
2019-04-23T07:38:40.498Z,16.20
2019-04-23T07:40:30.963Z,16.20
2019-04-23T07:41:37.511Z,16.30
2019-04-23T07:43:37.267Z,16.30
2019-04-23T07:44:35.081Z,16.40
2019-04-23T07:46:23.540Z,16.40
2019-04-23T07:48:16.271Z,16.50
2019-04-23T07:49:30.370Z,16.50
2019-04-23T07:52:33.052Z,16.50
2019-04-23T07:53:29.105Z,16.50
2019-04-23T07:54:28.794Z,16.50
2019-04-23T07:56:27.302Z,16.60
2019-04-23T07:57:23.876Z,16.60
2019-04-23T07:59:32.848Z,16.70
2019-04-23T08:00:40.742Z,16.70
2019-04-23T08:01:17.237Z,16.80
2019-04-23T08:02:29.857Z,16.80
2019-04-23T08:03:36.333Z,16.90
2019-04-23T08:04:26.924Z,16.90
2019-04-23T08:05:22.275Z,17.00
2019-04-23T08:08:16.587Z,17.00
2019-04-23T08:09:33.612Z,16.90
2019-04-23T08:12:30.738Z,16.80
2019-04-23T08:13:21.073Z,16.80
2019-04-23T08:14:31.736Z,16.90
2019-04-23T08:16:33.474Z,16.90
2019-04-23T08:17:27.681Z,16.90
2019-04-23T08:20:21.026Z,16.90
2019-04-23T08:21:17.795Z,16.90
2019-04-23T08:22:25.698Z,17.00
2019-04-23T08:23:34.345Z,17.00
2019-04-23T08:24:16.600Z,17.00
2019-04-23T08:25:33.610Z,17.00
2019-04-23T08:26:37.835Z,17.00
2019-04-23T08:27:26.687Z,17.00
2019-04-23T08:28:41.330Z,17.00
2019-04-23T08:29:24.766Z,17.00
2019-04-23T08:30:23.784Z,17.00
2019-04-23T08:31:37.960Z,17.10
2019-04-23T08:32:21.066Z,17.10
2019-04-23T08:33:31.224Z,17.20
2019-04-23T08:34:35.645Z,17.20
2019-04-23T08:35:33.701Z,17.30
2019-04-23T08:36:34.045Z,17.30
2019-04-23T08:37:33.554Z,17.40
2019-04-23T08:38:25.626Z,17.40
2019-04-23T08:40:19.719Z,17.40
2019-04-23T08:41:26.714Z,17.40
2019-04-23T08:42:32.540Z,17.40
2019-04-23T08:43:40.297Z,17.50
2019-04-23T08:44:35.166Z,17.50
2019-04-23T08:45:29.512Z,17.50
2019-04-23T08:48:32.615Z,17.50
2019-04-23T08:50:31.967Z,17.50
2019-04-23T08:52:22.469Z,17.50
2019-04-23T08:53:35.283Z,17.60
2019-04-23T08:55:20.739Z,17.60
2019-04-23T08:56:31.604Z,17.60
2019-04-23T08:57:20.728Z,17.60
2019-04-23T08:58:29.949Z,17.60
2019-04-23T09:00:02.324Z,17.60
2019-04-23T09:01:21.023Z,17.60
2019-04-23T09:02:34.916Z,17.60
2019-04-23T09:03:29.772Z,17.60
2019-04-23T09:04:23.223Z,17.60
2019-04-23T09:06:27.209Z,17.60
2019-04-23T09:07:27.353Z,17.60
2019-04-23T09:08:32.259Z,17.60
2019-04-23T09:09:34.438Z,17.60
2019-04-23T09:10:33.738Z,17.70
2019-04-23T09:11:41.546Z,17.70
2019-04-23T09:12:34.819Z,17.70
2019-04-23T09:14:31.329Z,17.70
2019-04-23T09:15:38.680Z,17.70
2019-04-23T09:16:21.891Z,17.70
2019-04-23T09:17:33.964Z,17.70
2019-04-23T09:18:20.824Z,17.70
2019-04-23T09:19:21.275Z,17.80
2019-04-23T09:20:26.034Z,17.80
2019-04-23T09:21:20.897Z,17.80
2019-04-23T09:22:27.819Z,17.80
2019-04-23T09:24:32.504Z,17.80
2019-04-23T09:26:25.643Z,17.80
2019-04-23T09:27:32.944Z,17.90
2019-04-23T09:29:38.782Z,17.90
2019-04-23T09:30:31.585Z,17.90
2019-04-23T09:31:45.260Z,17.90
2019-04-23T09:32:28.119Z,17.90
2019-04-23T09:33:38.962Z,18.00
2019-04-23T09:34:25.930Z,18.00
2019-04-23T09:35:30.471Z,18.00
2019-04-23T09:36:33.491Z,18.00
2019-04-23T09:37:34.497Z,18.00
2019-04-23T09:38:16.337Z,18.00
2019-04-23T09:39:34.154Z,18.10
2019-04-23T09:40:41.170Z,18.10
2019-04-23T09:41:26.796Z,18.10
2019-04-23T09:42:23.834Z,18.20
2019-04-23T09:43:19.174Z,18.20
2019-04-23T09:45:26.714Z,18.20
2019-04-23T09:45:33.534Z,18.30
2019-04-23T09:46:28.692Z,18.30
2019-04-23T09:48:26.260Z,18.30
2019-04-23T09:49:32.280Z,18.40
2019-04-23T09:50:19.967Z,18.40
2019-04-23T09:51:22.134Z,18.30
2019-04-23T09:52:19.886Z,18.30
2019-04-23T09:53:27.595Z,18.40
2019-04-23T09:54:23.382Z,18.40
2019-04-23T09:55:33.257Z,18.40
2019-04-23T09:56:35.431Z,18.40
2019-04-23T09:58:14.939Z,18.40
2019-04-23T09:59:21.857Z,18.40
2019-04-23T10:00:36.001Z,18.50
2019-04-23T10:01:28.789Z,18.50
2019-04-23T10:02:14.521Z,18.50
2019-04-23T10:03:19.531Z,18.60
2019-04-23T10:04:15.320Z,18.60
2019-04-23T10:05:21.669Z,18.60
2019-04-23T10:06:12.278Z,18.60
2019-04-23T10:07:16.085Z,18.70
2019-04-23T10:08:13.743Z,18.70
2019-04-23T10:09:06.161Z,18.70
2019-04-23T10:10:05.363Z,18.80
2019-04-23T10:11:05.078Z,18.80
2019-04-23T10:12:05.188Z,18.90
2019-04-23T10:13:06.082Z,18.90
2019-04-23T10:14:06.044Z,18.90
2019-04-23T10:15:10.772Z,18.90
2019-04-23T10:16:04.555Z,18.90
2019-04-23T10:17:06.270Z,19.00
2019-04-23T10:18:04.955Z,19.00
2019-04-23T10:19:05.980Z,19.00
2019-04-23T10:20:04.679Z,19.00
2019-04-23T10:21:05.694Z,19.10
2019-04-23T10:22:05.012Z,19.10
2019-04-23T10:23:06.095Z,19.10
2019-04-23T10:24:05.389Z,19.10
2019-04-23T10:25:04.953Z,19.10
2019-04-23T10:26:05.968Z,19.10
2019-04-23T10:27:04.356Z,19.10
2019-04-23T10:28:07.200Z,19.10
2019-04-23T10:29:05.523Z,19.10
2019-04-23T10:30:05.930Z,19.10
2019-04-23T10:31:04.872Z,19.20
2019-04-23T10:32:04.584Z,19.20
2019-04-23T10:33:05.611Z,19.20
2019-04-23T10:34:04.439Z,19.20
2019-04-23T10:35:14.287Z,19.20
2019-04-23T10:36:09.296Z,19.20
2019-04-23T10:37:05.352Z,19.20
2019-04-23T10:38:10.099Z,19.20
2019-04-23T10:39:11.461Z,19.20
2019-04-23T10:40:12.020Z,19.30
2019-04-23T10:41:06.352Z,19.30
2019-04-23T10:42:05.612Z,19.30
2019-04-23T10:43:05.840Z,19.30
2019-04-23T10:44:04.930Z,19.30
2019-04-23T10:45:19.008Z,19.30
2019-04-23T10:46:25.486Z,19.30
2019-04-23T10:47:29.943Z,19.30
2019-04-23T10:48:27.823Z,19.30
2019-04-23T10:51:33.606Z,19.20
2019-04-23T10:52:28.827Z,19.20
2019-04-23T10:53:36.046Z,19.20
2019-04-23T10:55:25.033Z,19.30
2019-04-23T10:56:26.977Z,19.30
2019-04-23T10:57:24.682Z,19.30
2019-04-23T10:59:34.815Z,19.30
2019-04-23T11:00:29.577Z,19.30
2019-04-23T11:01:35.646Z,19.40
2019-04-23T11:02:38.785Z,19.30
2019-04-23T11:04:46.757Z,19.30
2019-04-23T11:05:42.759Z,19.20
2019-04-23T11:08:23.749Z,19.10
2019-04-23T11:10:25.382Z,19.00
2019-04-23T11:11:34.158Z,19.00
2019-04-23T11:12:41.381Z,18.90
2019-04-23T11:13:23.544Z,18.90
2019-04-23T11:14:24.649Z,18.90
2019-04-23T11:16:49.024Z,18.90
2019-04-23T11:17:37.864Z,18.90
2019-04-23T11:18:44.857Z,18.90
2019-04-23T11:19:39.717Z,19.00
2019-04-23T11:20:40.995Z,19.00
2019-04-23T11:21:32.633Z,19.10
2019-04-23T11:24:41.345Z,19.10
2019-04-23T11:25:34.658Z,19.00
2019-04-23T11:26:27.990Z,19.00
2019-04-23T11:27:34.863Z,19.00
2019-04-23T11:28:32.351Z,19.00
2019-04-23T11:29:25.435Z,19.00
2019-04-23T11:31:35.001Z,19.10
2019-04-23T11:32:36.313Z,19.10
2019-04-23T11:33:18.269Z,19.00
2019-04-23T11:34:56.152Z,19.00
2019-04-23T11:35:36.272Z,19.00
2019-04-23T11:36:40.921Z,19.00
2019-04-23T11:37:31.236Z,19.00
2019-04-23T11:39:37.208Z,19.00
2019-04-23T11:42:37.558Z,19.10
2019-04-23T11:45:38.531Z,19.10
2019-04-23T11:46:45.217Z,19.10
2019-04-23T11:48:03.839Z,19.20
2019-04-23T11:48:42.438Z,19.20
2019-04-23T11:50:39.223Z,19.20
2019-04-23T11:51:45.724Z,19.20
2019-04-23T11:52:29.916Z,19.20
2019-04-23T11:53:25.478Z,19.30
2019-04-23T11:54:22.507Z,19.30
2019-04-23T11:57:39.948Z,19.20
2019-04-23T11:59:35.710Z,19.10
2019-04-23T12:00:40.133Z,19.00
2019-04-23T12:02:38.130Z,19.00
2019-04-23T12:03:26.281Z,19.00
2019-04-23T12:04:34.793Z,18.90
2019-04-23T12:05:40.569Z,18.90
2019-04-23T12:06:23.467Z,18.90
2019-04-23T12:07:22.471Z,18.90
2019-04-23T12:08:37.593Z,18.90
2019-04-23T12:09:39.535Z,18.90
2019-04-23T12:10:37.575Z,19.00
2019-04-23T12:11:52.643Z,19.10
2019-04-23T12:13:35.215Z,19.20
2019-04-23T12:14:28.950Z,19.20
2019-04-23T12:15:31.663Z,19.30
2019-04-23T12:18:38.343Z,19.50
2019-04-23T12:19:51.942Z,19.50
2019-04-23T12:21:37.189Z,19.70
2019-04-23T12:22:35.281Z,19.70
2019-04-23T12:23:40.372Z,19.80
2019-04-23T12:24:56.662Z,19.80
2019-04-23T12:26:35.221Z,19.90
2019-04-23T12:29:26.856Z,20.00
2019-04-23T12:30:39.270Z,20.00
2019-04-23T12:34:34.138Z,20.00
2019-04-23T12:35:27.188Z,20.00
2019-04-23T12:36:36.838Z,19.90
2019-04-23T12:37:34.407Z,19.90
2019-04-23T12:38:18.728Z,19.80
2019-04-23T12:39:32.720Z,19.80
2019-04-23T12:40:30.643Z,19.80
2019-04-23T12:41:35.707Z,19.80
2019-04-23T12:43:21.560Z,19.70
2019-04-23T12:46:37.680Z,19.70
2019-04-23T12:48:38.159Z,19.70
2019-04-23T12:49:52.631Z,19.70
2019-04-23T12:50:44.657Z,19.70
2019-04-23T12:51:39.965Z,19.70
2019-04-23T12:53:25.131Z,19.70
2019-04-23T12:54:49.378Z,19.80
2019-04-23T12:55:35.720Z,19.80
2019-04-23T12:56:40.145Z,19.80
2019-04-23T12:57:33.926Z,19.80
2019-04-23T12:58:24.409Z,19.80
2019-04-23T12:59:36.265Z,19.80
2019-04-23T13:00:30.639Z,19.80
2019-04-23T13:01:42.155Z,19.80
2019-04-23T13:02:37.918Z,19.80
2019-04-23T13:03:25.076Z,19.80
2019-04-23T13:04:32.010Z,19.80
2019-04-23T13:05:29.736Z,19.80
2019-04-23T13:06:26.813Z,19.90
2019-04-23T13:07:37.872Z,19.90
2019-04-23T13:08:37.861Z,19.90
2019-04-23T13:10:31.830Z,19.90
2019-04-23T13:11:34.258Z,19.90
2019-04-23T13:13:21.960Z,19.80
2019-04-23T13:14:40.829Z,19.80
2019-04-23T13:15:22.179Z,19.80
2019-04-23T13:18:31.021Z,19.70
2019-04-23T13:21:51.151Z,19.70
2019-04-23T13:22:39.406Z,19.70
2019-04-23T13:23:21.561Z,19.70
2019-04-23T13:24:32.474Z,19.70
2019-04-23T13:25:34.431Z,19.70
2019-04-23T13:26:29.511Z,19.70
2019-04-23T13:27:37.528Z,19.80
2019-04-23T13:29:35.508Z,19.80
2019-04-23T13:30:37.147Z,19.90
2019-04-23T13:31:28.735Z,19.90
2019-04-23T13:32:35.544Z,19.90
2019-04-23T13:34:39.706Z,19.80
2019-04-23T13:35:45.215Z,19.80
2019-04-23T13:37:28.959Z,19.80
2019-04-23T13:38:36.106Z,19.80
2019-04-23T13:39:32.813Z,19.80
2019-04-23T13:42:40.131Z,19.90
2019-04-23T13:43:29.322Z,19.90
2019-04-23T13:44:30.897Z,20.00
2019-04-23T13:45:52.836Z,20.00
2019-04-23T13:46:28.647Z,20.10
2019-04-23T13:48:24.226Z,20.10
2019-04-23T13:49:32.867Z,20.10
2019-04-23T13:50:41.577Z,20.10
2019-04-23T13:51:30.300Z,20.10
2019-04-23T13:52:56.604Z,20.10
2019-04-23T13:53:39.244Z,20.00
2019-04-23T13:54:54.344Z,20.00
2019-04-23T13:55:26.488Z,20.00
2019-04-23T13:56:49.084Z,20.00
2019-04-23T13:57:55.841Z,20.00
2019-04-23T13:58:22.128Z,20.00
2019-04-23T13:59:38.686Z,20.00
2019-04-23T14:00:44.286Z,20.00
2019-04-23T14:01:25.254Z,20.00
2019-04-23T14:02:36.688Z,19.90
2019-04-23T14:04:38.061Z,19.90
2019-04-23T14:05:32.820Z,19.80
2019-04-23T14:06:36.006Z,19.80
2019-04-23T14:07:38.175Z,19.80
2019-04-23T14:08:32.730Z,19.80
2019-04-23T14:09:29.414Z,19.80
2019-04-23T14:10:33.602Z,19.80
2019-04-23T14:11:30.571Z,19.90
2019-04-23T14:13:43.841Z,19.90
2019-04-23T14:14:41.122Z,19.90
2019-04-23T14:15:40.126Z,19.90
2019-04-23T14:19:27.557Z,19.90
2019-04-23T14:21:30.136Z,19.90
2019-04-23T14:22:42.141Z,19.90
2019-04-23T14:23:30.927Z,19.90
2019-04-23T14:24:25.865Z,19.90
2019-04-23T14:25:15.710Z,19.90
2019-04-23T14:26:28.563Z,19.90
2019-04-23T14:27:31.860Z,19.90
2019-04-23T14:28:34.121Z,19.90
2019-04-23T14:29:36.712Z,19.90
2019-04-23T14:30:36.006Z,19.90
2019-04-23T14:31:27.257Z,19.90
2019-04-23T14:32:22.088Z,19.90
2019-04-23T14:33:44.861Z,19.90
2019-04-23T14:34:22.280Z,19.90
2019-04-23T14:35:31.389Z,20.00
2019-04-23T14:37:27.588Z,20.00
2019-04-23T14:39:30.602Z,20.00
2019-04-23T14:40:26.235Z,20.00
2019-04-23T14:41:25.349Z,20.00
2019-04-23T14:42:42.666Z,20.00
2019-04-23T14:43:21.764Z,20.00
2019-04-23T14:44:18.323Z,20.00
2019-04-23T14:45:29.089Z,20.00
2019-04-23T14:46:40.188Z,20.10
2019-04-23T14:47:34.177Z,20.10
2019-04-23T14:48:20.471Z,20.10
2019-04-23T14:49:31.925Z,20.10
2019-04-23T14:50:31.786Z,20.20
2019-04-23T14:51:35.130Z,20.20
2019-04-23T14:52:36.473Z,20.20
2019-04-23T14:53:28.854Z,20.20
2019-04-23T14:54:41.488Z,20.30
2019-04-23T14:55:47.132Z,20.30
2019-04-23T14:56:19.936Z,20.30
2019-04-23T14:57:37.854Z,20.30
2019-04-23T14:59:18.253Z,20.30
2019-04-23T15:02:33.349Z,20.40
2019-04-23T15:03:26.537Z,20.30
2019-04-23T15:04:30.262Z,20.30
2019-04-23T15:05:31.850Z,20.30
2019-04-23T15:06:35.181Z,20.30
2019-04-23T15:07:33.161Z,20.30
2019-04-23T15:08:38.094Z,20.30
2019-04-23T15:09:32.196Z,20.30
2019-04-23T15:11:33.207Z,20.30
2019-04-23T15:12:22.267Z,20.20
2019-04-23T15:13:22.588Z,20.20
2019-04-23T15:14:22.947Z,20.20
2019-04-23T15:15:28.760Z,20.20
2019-04-23T15:16:22.028Z,20.20
2019-04-23T15:18:43.846Z,20.10
2019-04-23T15:19:28.026Z,20.00
2019-04-23T15:20:27.547Z,20.00
2019-04-23T15:22:28.301Z,19.90
2019-04-23T15:24:36.770Z,19.90
2019-04-23T15:25:42.084Z,19.90
2019-04-23T15:27:42.180Z,19.80
2019-04-23T15:28:08.064Z,19.80
2019-04-23T15:29:18.422Z,19.80
2019-04-23T15:30:26.989Z,19.90
2019-04-23T15:31:24.550Z,19.80
2019-04-23T15:32:23.658Z,19.80
2019-04-23T15:33:25.722Z,19.80
2019-04-23T15:35:35.945Z,19.70
2019-04-23T15:37:28.192Z,19.60
2019-04-23T15:39:20.825Z,19.60
2019-04-23T15:41:36.448Z,19.60
2019-04-23T15:42:28.294Z,19.60
2019-04-23T15:43:29.786Z,19.60
2019-04-23T15:44:20.722Z,19.60
2019-04-23T15:46:25.043Z,19.60
2019-04-23T15:47:31.051Z,19.60
2019-04-23T15:48:30.074Z,19.70
2019-04-23T15:49:19.411Z,19.70
2019-04-23T15:50:26.233Z,19.70
2019-04-23T15:51:34.538Z,19.70
2019-04-23T15:52:29.407Z,19.70
2019-04-23T15:53:22.814Z,19.70
2019-04-23T15:54:33.626Z,19.70
2019-04-23T15:56:40.260Z,19.60
2019-04-23T15:57:51.428Z,19.70
2019-04-23T15:58:22.811Z,19.70
2019-04-23T16:00:28.821Z,19.60
2019-04-23T16:01:33.641Z,19.60
2019-04-23T16:02:04.489Z,19.60
2019-04-23T16:03:04.860Z,19.60
2019-04-23T16:04:11.264Z,19.60
2019-04-23T16:05:06.467Z,19.50
2019-04-23T16:06:04.954Z,19.50
2019-04-23T16:07:06.645Z,19.50
2019-04-23T16:08:29.547Z,19.40
2019-04-23T16:09:20.208Z,19.40
2019-04-23T16:10:27.575Z,19.40
2019-04-23T16:11:39.191Z,19.30
2019-04-23T16:12:29.702Z,19.30
2019-04-23T16:13:35.811Z,19.20
2019-04-23T16:14:30.547Z,19.20
2019-04-23T16:15:24.912Z,19.20
2019-04-23T16:16:36.182Z,19.20
2019-04-23T16:18:34.366Z,19.20
2019-04-23T16:19:27.735Z,19.10
2019-04-23T16:20:34.763Z,19.00
2019-04-23T16:23:34.988Z,18.90
2019-04-23T16:24:17.286Z,18.80
2019-04-23T16:25:25.035Z,18.80